Time;durP1;ratioP1;P1;durP2;ratioP2;P2;SDS_P1;SDS_P2;PMS_P1;PMS_P2;Temp;Humidity;BMP_temperature;BMP_pressure;BME280_temperature;BME280_humidity;BME280_pressure;Samples;Min_cycle;Max_cycle;Signal;HPM_P1;HPM_P2
2022/08/09 00:00:08;;;;;;;3.70;2.30;;;21.10;72.80;;;;;;4942115;28;20506;-76
2022/08/09 00:02:34;;;;;;;8.00;2.67;;;21.00;72.70;;;;;;4938525;28;20035;-76
2022/08/09 00:05:00;;;;;;;4.17;3.03;;;21.00;72.80;;;;;;4974077;28;20502;-76
2022/08/09 00:07:25;;;;;;;4.13;1.98;;;20.90;73.30;;;;;;4957718;28;20372;-76
2022/08/09 00:09:51;;;;;;;6.00;2.27;;;20.90;74.00;;;;;;4971190;28;20069;-76
2022/08/09 00:12:17;;;;;;;4.23;2.50;;;20.80;75.00;;;;;;4955072;28;20111;-76
2022/08/09 00:14:43;;;;;;;3.17;2.00;;;20.70;75.30;;;;;;4970590;28;20031;-76
2022/08/09 00:17:08;;;;;;;3.90;2.20;;;20.60;75.90;;;;;;4970764;28;20062;-76
2022/08/09 00:19:34;;;;;;;3.03;1.90;;;20.60;77.00;;;;;;4972157;28;20384;-76
2022/08/09 00:22:01;;;;;;;3.03;2.43;;;20.50;77.40;;;;;;4971996;28;20114;-76
2022/08/09 00:24:27;;;;;;;4.05;1.92;;;20.50;78.20;;;;;;4954435;28;20502;-76
2022/08/09 00:26:52;;;;;;;5.05;1.98;;;20.50;78.70;;;;;;4970569;28;20038;-76
2022/08/09 00:29:18;;;;;;;4.30;2.27;;;20.50;78.50;;;;;;4970673;28;20113;-76
2022/08/09 00:31:44;;;;;;;3.70;2.03;;;20.40;79.80;;;;;;4973282;28;20031;-76
2022/08/09 00:34:10;;;;;;;2.90;1.93;;;20.40;80.40;;;;;;4958016;28;20027;-76
2022/08/09 00:36:35;;;;;;;4.10;2.23;;;20.30;79.90;;;;;;4974288;28;20027;-76
2022/08/09 00:39:01;;;;;;;3.37;1.90;;;20.30;80.50;;;;;;4975053;28;20410;-75
2022/08/09 00:41:27;;;;;;;3.47;1.80;;;20.30;80.70;;;;;;4958168;28;20111;-75
2022/08/09 00:43:53;;;;;;;5.20;2.27;;;20.20;81.80;;;;;;4957632;28;20026;-75
2022/08/09 00:46:18;;;;;;;3.13;1.87;;;20.20;82.20;;;;;;4973917;28;20035;-75
2022/08/09 00:48:45;;;;;;;6.33;1.40;;;20.20;82.00;;;;;;4975257;28;20027;-75
2022/08/09 00:51:10;;;;;;;3.22;2.20;;;20.10;82.70;;;;;;4974058;28;20372;-75
2022/08/09 00:53:37;;;;;;;2.87;1.90;;;20.00;83.30;;;;;;4973788;28;20038;-75
2022/08/09 00:56:06;;;;;;;2.63;1.98;;;20.00;83.80;;;;;;4957878;28;20042;-75
2022/08/09 00:58:34;;;;;;;4.60;2.03;;;19.90;85.00;;;;;;4957664;28;20035;-75
2022/08/09 01:01:01;;;;;;;4.97;1.75;;;19.90;86.30;;;;;;4974182;28;20045;-75
2022/08/09 01:03:33;;;;;;;;;;;19.90;85.40;;;;;;4942071;28;20030;-75
2022/08/09 01:06:12;;;;;;;4.00;1.80;;;19.90;85.80;;;;;;4958099;28;19918;-75
2022/08/09 01:09:19;;;;;;;2.63;2.20;;;19.90;85.80;;;;;;4942982;28;20105;-75
2022/08/09 01:12:11;;;;;;;2.03;1.80;;;19.80;86.00;;;;;;4974102;28;20027;-75
2022/08/09 01:14:49;;;;;;;4.38;2.25;;;19.80;87.00;;;;;;4957443;28;20392;-75
2022/08/09 01:17:21;;;;;;;5.78;1.77;;;19.80;87.00;;;;;;4957063;28;20109;-75
2022/08/09 01:20:10;;;;;;;2.60;1.92;;;19.80;86.50;;;;;;4973702;28;20030;-75
2022/08/09 01:23:07;;;;;;;3.00;2.28;;;19.70;86.10;;;;;;4973487;28;20078;-75
2022/08/09 01:26:12;;;;;;;3.97;2.20;;;19.70;87.20;;;;;;4970538;28;20029;-75
2022/08/09 01:28:38;;;;;;;3.42;2.20;;;19.60;87.50;;;;;;4957248;28;20030;-75
2022/08/09 01:31:04;;;;;;;6.70;2.13;;;19.60;87.50;;;;;;4956987;28;20038;-75
2022/08/09 01:33:34;;;;;;;3.25;2.10;;;19.60;87.40;;;;;;4941162;28;20034;-75
2022/08/09 01:36:29;;;;;;;3.92;2.58;;;19.60;88.20;;;;;;4941392;28;20078;-75
2022/08/09 01:38:55;;;;;;;3.13;2.08;;;19.50;87.80;;;;;;4964596;28;20418;-75
2022/08/09 01:41:27;;;;;;;8.07;2.40;;;19.50;88.10;;;;;;4940890;28;20169;-76
2022/08/09 01:43:54;;;;;;;5.40;2.22;;;19.50;88.20;;;;;;4972112;28;20097;-76
2022/08/09 01:46:30;;;;;;;9.63;2.70;;;19.40;88.90;;;;;;4956401;28;20034;-75
2022/08/09 01:49:02;;;;;;;4.32;2.05;;;19.40;89.40;;;;;;4974194;28;20045;-75
2022/08/09 01:51:29;;;;;;;3.03;1.80;;;19.30;89.10;;;;;;4957140;28;20058;-75
2022/08/09 01:53:55;;;;;;;2.97;1.90;;;19.30;89.70;;;;;;4956546;28;20031;-75
2022/08/09 01:56:21;;;;;;;4.38;2.45;;;19.20;90.30;;;;;;4956754;28;20066;-75
2022/08/09 01:58:47;;;;;;;5.70;2.65;;;19.20;90.70;;;;;;4956668;28;20027;-75
2022/08/09 02:01:13;;;;;;;3.77;2.43;;;19.20;90.80;;;;;;4955851;28;20462;-75
2022/08/09 02:03:41;;;;;;;2.60;2.20;;;19.10;91.20;;;;;;4956293;28;20031;-75
2022/08/09 02:06:07;;;;;;;4.65;2.30;;;19.10;91.30;;;;;;4941418;28;20553;-75
2022/08/09 02:08:37;;;;;;;4.53;2.17;;;19.00;91.30;;;;;;4956720;28;20095;-76
2022/08/09 02:11:03;;;;;;;2.90;2.00;;;18.90;91.80;;;;;;4940696;28;20033;-75
2022/08/09 02:13:29;;;;;;;4.73;2.30;;;18.90;92.80;;;;;;4955706;28;20130;-75
2022/08/09 02:15:54;;;;;;;6.63;2.07;;;18.80;92.80;;;;;;4956256;28;20571;-75
2022/08/09 02:18:24;;;;;;;3.87;2.37;;;18.80;93.00;;;;;;4956359;28;20407;-75
2022/08/09 02:21:06;;;;;;;3.35;2.20;;;18.70;93.30;;;;;;4956320;28;20054;-75
2022/08/09 02:23:42;;;;;;;4.15;2.17;;;18.70;93.60;;;;;;4973228;28;20395;-75
2022/08/09 02:26:08;;;;;;;4.70;2.22;;;18.70;93.50;;;;;;4972255;28;20039;-75
2022/08/09 02:28:35;;;;;;;3.13;2.30;;;18.70;93.80;;;;;;4956235;28;20054;-75
2022/08/09 02:31:10;;;;;;;;;;;18.60;93.70;;;;;;4956281;28;20033;-75
2022/08/09 02:33:39;;;;;;;4.55;2.10;;;18.60;93.80;;;;;;4971918;28;19917;-75
2022/08/09 02:36:07;;;;;;;3.40;2.05;;;18.50;94.10;;;;;;4940436;28;20093;-75
2022/08/09 02:38:50;;;;;;;3.63;2.53;;;18.50;94.20;;;;;;4971766;28;20038;-75
2022/08/09 02:41:21;;;;;;;5.57;2.90;;;18.40;94.10;;;;;;4941250;28;20046;-75
2022/08/09 02:43:46;;;;;;;4.68;2.53;;;18.40;94.20;;;;;;4939979;28;20476;-75
2022/08/09 02:46:12;;;;;;;4.17;2.30;;;18.30;94.70;;;;;;4955616;28;20042;-75
2022/08/09 02:48:38;;;;;;;3.60;2.40;;;18.20;94.70;;;;;;4955721;28;20065;-75
2022/08/09 02:51:04;;;;;;;3.90;2.90;;;18.20;95.50;;;;;;4955914;28;20464;-75
2022/08/09 02:53:37;;;;;;;7.33;2.47;;;18.20;95.80;;;;;;4939483;28;20031;-75
2022/08/09 02:56:03;;;;;;;4.15;2.25;;;18.10;96.10;;;;;;4955823;28;20035;-75
2022/08/09 02:58:30;;;;;;;3.67;2.20;;;18.10;96.30;;;;;;4939616;28;20043;-75
2022/08/09 03:00:57;;;;;;;5.18;2.58;;;18.10;97.00;;;;;;4955251;28;20039;-75
2022/08/09 03:03:23;;;;;;;3.70;2.42;;;18.10;97.00;;;;;;4939455;28;20039;-76
2022/08/09 03:05:49;;;;;;;2.80;2.20;;;18.00;97.70;;;;;;4939892;28;20027;-75
2022/08/09 03:08:16;;;;;;;5.45;2.55;;;18.00;97.90;;;;;;4939549;28;20037;-75
2022/08/09 03:10:42;;;;;;;5.40;2.45;;;18.00;97.90;;;;;;4939781;28;20057;-76
2022/08/09 03:13:08;;;;;;;6.90;2.20;;;18.00;98.40;;;;;;4939001;28;20035;-75
2022/08/09 03:15:34;;;;;;;4.77;2.93;;;17.90;98.10;;;;;;4954925;28;20034;-76
2022/08/09 03:18:00;;;;;;;4.40;3.17;;;17.90;98.20;;;;;;4955120;28;20030;-75
2022/08/09 03:20:26;;;;;;;6.53;2.90;;;17.90;98.50;;;;;;4955258;28;20026;-75
2022/08/09 03:22:52;;;;;;;5.20;2.70;;;17.90;98.40;;;;;;4955099;28;20115;-74
2022/08/09 03:25:18;;;;;;;4.90;2.90;;;17.70;98.00;;;;;;4955067;28;20038;-75
2022/08/09 03:27:47;;;;;;;6.80;2.97;;;17.70;98.80;;;;;;4955136;28;20114;-75
2022/08/09 03:30:13;;;;;;;3.83;2.60;;;17.70;99.10;;;;;;4955314;28;20106;-75
2022/08/09 03:32:39;;;;;;;6.47;3.05;;;17.60;99.80;;;;;;4954836;28;20121;-75
2022/08/09 03:35:05;;;;;;;4.93;2.97;;;17.70;99.90;;;;;;4939289;28;20117;-75
2022/08/09 03:37:31;;;;;;;4.77;2.73;;;17.60;99.90;;;;;;4955084;28;20558;-75
2022/08/09 03:39:56;;;;;;;3.57;2.63;;;17.60;99.90;;;;;;4939241;28;20490;-75
2022/08/09 03:42:22;;;;;;;5.60;2.97;;;17.50;99.90;;;;;;4939190;28;20035;-75
2022/08/09 03:44:48;;;;;;;8.60;3.43;;;17.50;99.90;;;;;;4972204;28;20077;-75
2022/08/09 03:47:14;;;;;;;7.97;3.67;;;17.50;99.90;;;;;;4971986;28;20038;-75
2022/08/09 03:49:40;;;;;;;5.57;2.87;;;17.50;99.90;;;;;;4972354;28;20066;-75
2022/08/09 03:52:06;;;;;;;7.37;3.17;;;17.40;99.90;;;;;;4939097;28;20027;-75
2022/08/09 03:54:34;;;;;;;5.72;2.63;;;17.40;99.90;;;;;;4954789;28;20349;-75
2022/08/09 03:57:03;;;;;;;4.85;2.78;;;17.40;99.90;;;;;;4939314;28;20049;-75
2022/08/09 03:59:29;;;;;;;4.50;3.05;;;17.40;99.90;;;;;;4972288;28;20030;-75
2022/08/09 04:01:55;;;;;;;4.07;3.33;;;17.40;99.90;;;;;;4938413;28;20415;-75
2022/08/09 04:04:21;;;;;;;6.18;3.65;;;17.30;99.90;;;;;;4954834;28;20450;-75
2022/08/09 04:06:47;;;;;;;5.67;3.10;;;17.30;99.90;;;;;;4956859;28;20030;-75
2022/08/09 04:09:13;;;;;;;4.37;2.77;;;17.30;99.90;;;;;;4958749;28;20031;-75
2022/08/09 04:12:10;;;;;;;3.73;2.90;;;17.30;99.90;;;;;;4975878;28;20034;-75
2022/08/09 04:14:37;;;;;;;4.20;2.65;;;17.30;99.90;;;;;;4926644;28;20047;-75
2022/08/09 04:17:03;;;;;;;4.70;2.90;;;17.20;99.90;;;;;;4958410;28;20053;-75
2022/08/09 04:19:29;;;;;;;4.60;2.70;;;17.20;99.90;;;;;;4942657;28;20828;-76
2022/08/09 04:21:55;;;;;;;4.73;3.07;;;17.20;99.90;;;;;;4958604;28;20058;-75
2022/08/09 04:24:21;;;;;;;6.13;3.30;;;17.20;99.90;;;;;;4975533;28;20038;-75
2022/08/09 04:26:46;;;;;;;5.67;2.53;;;17.10;99.90;;;;;;4958375;28;20027;-75
2022/08/09 04:29:12;;;;;;;4.30;3.03;;;17.20;99.90;;;;;;4975722;28;20509;-75
2022/08/09 04:31:38;;;;;;;5.07;2.80;;;17.20;99.90;;;;;;4975426;28;20038;-75
2022/08/09 04:34:04;;;;;;;6.57;3.20;;;17.20;99.90;;;;;;4977827;28;20464;-75
2022/08/09 04:36:30;;;;;;;5.37;2.70;;;17.30;99.90;;;;;;4985052;28;20034;-74
2022/08/09 04:38:58;;;;;;;4.35;2.70;;;17.30;99.90;;;;;;4952931;28;20267;-74
2022/08/09 04:41:24;;;;;;;4.88;2.90;;;17.30;99.90;;;;;;4958015;28;20042;-74
2022/08/09 04:43:53;;;;;;;4.40;3.20;;;17.30;99.90;;;;;;4994577;28;20072;-74
2022/08/09 04:46:19;;;;;;;4.28;2.85;;;17.30;99.90;;;;;;4977464;28;20038;-74
2022/08/09 04:48:45;;;;;;;4.57;2.73;;;17.30;99.90;;;;;;4961102;28;20038;-75
2022/08/09 04:51:11;;;;;;;6.23;3.50;;;17.30;99.90;;;;;;4982776;28;20053;-75
2022/08/09 04:53:37;;;;;;;5.97;2.60;;;17.40;99.90;;;;;;4969163;28;20031;-75
2022/08/09 04:56:03;;;;;;;4.90;2.70;;;17.40;99.90;;;;;;4986212;28;20375;-75
2022/08/09 04:58:29;;;;;;;4.63;2.40;;;17.40;99.90;;;;;;4994512;28;20482;-75
2022/08/09 05:00:54;;;;;;;7.10;2.80;;;17.30;99.90;;;;;;4957977;28;20034;-76
2022/08/09 05:03:21;;;;;;;6.03;3.13;;;17.40;99.90;;;;;;4957336;28;20051;-75
2022/08/09 05:05:47;;;;;;;4.53;2.50;;;17.40;99.90;;;;;;4957419;28;20506;-75
2022/08/09 05:08:13;;;;;;;6.50;3.20;;;17.40;99.90;;;;;;4957678;28;20051;-76
2022/08/09 05:10:39;;;;;;;4.40;2.33;;;17.40;99.90;;;;;;4957638;28;20030;-76
2022/08/09 05:13:05;;;;;;;6.07;2.75;;;17.50;99.90;;;;;;4960694;28;20500;-76
2022/08/09 05:15:30;;;;;;;5.23;2.63;;;17.50;99.90;;;;;;4983583;28;20062;-76
2022/08/09 05:17:57;;;;;;;8.60;2.60;;;;;;;;;;4958850;28;20031;-75
2022/08/09 05:20:24;;;;;;;6.40;2.63;;;17.50;99.80;;;;;;4957783;28;20038;-77
2022/08/09 05:22:52;;;;;;;5.82;2.92;;;17.60;99.90;;;;;;4979380;28;20494;-73
2022/08/09 05:25:21;;;;;;;4.43;2.47;;;17.70;99.90;;;;;;4967524;28;20482;-73
2022/08/09 05:27:49;;;;;;;4.25;2.33;;;17.80;98.60;;;;;;4985844;28;20462;-73
2022/08/09 05:30:16;;;;;;;5.32;2.53;;;17.90;99.20;;;;;;4976551;28;20120;-76
2022/08/09 05:32:42;;;;;;;3.33;2.20;;;17.90;96.80;;;;;;4972064;28;20107;-75
2022/08/09 05:35:08;;;;;;;4.45;2.45;;;18.00;98.40;;;;;;4974244;28;20031;-75
2022/08/09 05:37:34;;;;;;;9.40;2.93;;;18.00;99.90;;;;;;4972700;28;20039;-77
2022/08/09 05:40:00;;;;;;;7.03;2.47;;;18.10;99.90;;;;;;4984424;28;20096;-76
2022/08/09 05:42:26;;;;;;;5.37;2.30;;;18.10;97.70;;;;;;4992866;28;20092;-77
2022/08/09 05:44:53;;;;;;;5.23;2.80;;;18.10;97.40;;;;;;4991362;28;20042;-77
2022/08/09 05:47:23;;;;;;;10.38;2.40;;;18.20;97.20;;;;;;4958904;28;20087;-76
2022/08/09 05:49:52;;;;;;;3.70;2.15;;;18.30;97.80;;;;;;4992149;28;20027;-72
2022/08/09 05:52:19;;;;;;;11.27;2.83;;;18.30;98.70;;;;;;4992097;28;20066;-72
2022/08/09 05:54:44;;;;;;;5.60;2.83;;;18.40;96.80;;;;;;4993347;28;20034;-72
2022/08/09 05:57:10;;;;;;;7.13;2.83;;;18.40;97.00;;;;;;4993239;28;20042;-72
2022/08/09 05:59:36;;;;;;;3.17;2.33;;;18.50;96.50;;;;;;4993304;28;20092;-72
2022/08/09 06:02:02;;;;;;;6.30;2.93;;;18.50;96.60;;;;;;4992582;28;20062;-72
2022/08/09 06:04:27;;;;;;;5.07;3.07;;;18.60;96.40;;;;;;4991897;28;20038;-72
2022/08/09 06:06:53;;;;;;;5.10;2.70;;;18.70;96.30;;;;;;4993047;28;20067;-72
2022/08/09 06:09:19;;;;;;;4.47;2.73;;;18.70;95.40;;;;;;4992943;28;20033;-75
2022/08/09 06:11:45;;;;;;;3.17;1.87;;;18.80;95.00;;;;;;5008171;28;20049;-72
2022/08/09 06:14:11;;;;;;;4.13;2.15;;;19.00;92.00;;;;;;4991202;28;20109;-72
2022/08/09 06:16:36;;;;;;;7.10;2.77;;;19.00;92.00;;;;;;4992641;28;20034;-73
2022/08/09 06:19:02;;;;;;;2.50;1.90;;;19.10;92.10;;;;;;4992695;28;20117;-72
2022/08/09 06:21:28;;;;;;;3.87;2.07;;;19.20;91.60;;;;;;4992878;28;20061;-72
2022/08/09 06:23:54;;;;;;;3.07;1.60;;;19.30;92.90;;;;;;4994806;28;20037;-74
2022/08/09 06:26:21;;;;;;;2.05;1.52;;;19.40;92.90;;;;;;4993293;28;20528;-74
2022/08/09 06:28:54;;;;;;;2.63;1.70;;;19.40;91.70;;;;;;4992011;28;20549;-73
2022/08/09 06:31:19;;;;;;;2.75;2.15;;;19.50;92.20;;;;;;4992512;28;20038;-72
2022/08/09 06:33:45;;;;;;;5.23;1.80;;;19.50;93.20;;;;;;4991585;28;20041;-72
2022/08/09 06:36:11;;;;;;;5.23;2.33;;;19.60;92.60;;;;;;4990836;28;20056;-70
2022/08/09 06:38:37;;;;;;;4.40;1.83;;;19.70;91.50;;;;;;4991188;28;20042;-70
2022/08/09 06:41:03;;;;;;;6.82;1.85;;;19.80;91.00;;;;;;4991625;28;20030;-70
2022/08/09 06:43:30;;;;;;;6.50;2.22;;;19.90;90.40;;;;;;5006935;28;20104;-70
2022/08/09 06:45:55;;;;;;;5.03;2.00;;;20.00;89.20;;;;;;4991663;28;20034;-70
2022/08/09 06:48:21;;;;;;;3.47;2.50;;;20.10;89.20;;;;;;4991180;28;20081;-68
2022/08/09 06:50:47;;;;;;;5.17;1.87;;;20.20;87.80;;;;;;4992403;28;20113;-70
2022/08/09 06:53:13;;;;;;;9.87;2.27;;;20.20;87.10;;;;;;4991373;28;20022;-71
2022/08/09 06:55:38;;;;;;;3.60;1.63;;;20.30;86.80;;;;;;4992012;28;20034;-70
2022/08/09 06:58:04;;;;;;;3.17;1.80;;;20.50;85.10;;;;;;5003757;28;20569;-70
2022/08/09 07:00:32;;;;;;;5.00;1.90;;;20.50;87.90;;;;;;5011608;28;20508;-69
2022/08/09 07:02:58;;;;;;;6.57;2.00;;;20.60;89.00;;;;;;4991479;28;20060;-69
2022/08/09 07:05:24;;;;;;;5.47;2.53;;;20.70;86.70;;;;;;5004870;28;20505;-69
2022/08/09 07:07:53;;;;;;;3.03;1.90;;;20.80;84.40;;;;;;5011360;28;20096;-69
2022/08/09 07:10:19;;;;;;;4.10;1.88;;;21.00;83.00;;;;;;5011456;28;20022;-72
2022/08/09 07:12:44;;;;;;;5.53;2.23;;;21.20;81.70;;;;;;5011483;28;20570;-72
2022/08/09 07:15:10;;;;;;;3.23;1.40;;;21.30;81.40;;;;;;5006470;28;20053;-72
2022/08/09 07:17:36;;;;;;;2.60;1.73;;;21.30;79.90;;;;;;5001257;28;20393;-73
2022/08/09 07:20:02;;;;;;;2.67;1.77;;;21.40;80.70;;;;;;5000449;28;20113;-72
2022/08/09 07:22:28;;;;;;;4.30;1.90;;;21.50;84.30;;;;;;5000114;28;20048;-73
2022/08/09 07:24:53;;;;;;;2.57;1.80;;;21.50;85.80;;;;;;4991534;28;20045;-74
2022/08/09 07:27:19;;;;;;;5.97;1.57;;;21.50;84.70;;;;;;4991817;28;20058;-71
2022/08/09 07:29:45;;;;;;;5.88;1.80;;;21.50;82.90;;;;;;4991494;28;20042;-72
2022/08/09 07:32:11;;;;;;;3.10;2.00;;;21.60;82.10;;;;;;4990236;28;20045;-72
2022/08/09 07:34:36;;;;;;;2.00;1.37;;;21.70;77.50;;;;;;4991053;28;20030;-71
2022/08/09 07:37:02;;;;;;;4.33;1.77;;;21.80;76.00;;;;;;4990920;28;20490;-72
2022/08/09 07:39:28;;;;;;;3.77;1.80;;;21.90;74.00;;;;;;5005104;28;20037;-71
2022/08/09 07:41:54;;;;;;;2.47;1.70;;;22.20;74.20;;;;;;5009341;28;20770;-72
2022/08/09 07:44:19;;;;;;;6.33;1.53;;;22.30;73.00;;;;;;5010784;28;20572;-72
2022/08/09 07:46:46;;;;;;;2.90;1.35;;;22.50;72.20;;;;;;5010983;28;20068;-72
2022/08/09 07:49:12;;;;;;;4.43;1.58;;;22.60;69.90;;;;;;5012143;28;20036;-71
2022/08/09 07:51:38;;;;;;;3.22;1.25;;;22.70;71.30;;;;;;5012160;28;20113;-71
2022/08/09 07:54:04;;;;;;;6.00;1.30;;;22.80;74.00;;;;;;5011489;28;20026;-71
2022/08/09 07:56:30;;;;;;;1.77;1.48;;;22.80;76.30;;;;;;5006936;28;20088;-73
2022/08/09 07:58:56;;;;;;;4.30;1.20;;;22.80;68.70;;;;;;4989969;28;20034;-71
2022/08/09 08:01:22;;;;;;;4.65;1.50;;;22.90;69.20;;;;;;4991636;28;20030;-71
2022/08/09 08:03:48;;;;;;;6.07;2.07;;;23.00;68.60;;;;;;4990445;28;20036;-72
2022/08/09 08:06:13;;;;;;;2.13;1.30;;;23.10;67.80;;;;;;4991569;28;20081;-71
2022/08/09 08:08:39;;;;;;;2.70;1.53;;;23.20;64.30;;;;;;4990806;28;20089;-71
2022/08/09 08:11:05;;;;;;;1.70;1.33;;;23.30;64.60;;;;;;4991594;28;20030;-72
2022/08/09 08:13:31;;;;;;;3.83;1.52;;;23.40;63.80;;;;;;4990699;28;20031;-70
2022/08/09 08:15:56;;;;;;;3.60;2.43;;;23.50;61.30;;;;;;4991117;28;20038;-73
2022/08/09 08:18:22;;;;;;;6.43;2.30;;;23.60;61.70;;;;;;4991345;28;20266;-72
2022/08/09 08:20:48;;;;;;;4.70;1.47;;;23.70;60.80;;;;;;5005862;28;20104;-73
2022/08/09 08:23:16;;;;;;;4.13;1.47;;;23.80;60.30;;;;;;4990665;28;20038;-73
2022/08/09 08:25:41;;;;;;;5.22;1.40;;;23.90;59.90;;;;;;4989779;28;20026;-72
2022/08/09 08:28:07;;;;;;;2.25;1.58;;;24.00;58.80;;;;;;4989667;28;20031;-72
2022/08/09 08:30:33;;;;;;;3.93;1.13;;;24.00;59.90;;;;;;4991128;28;20070;-72
2022/08/09 08:32:59;;;;;;;3.40;1.48;;;24.10;60.20;;;;;;4990706;28;20034;-72
2022/08/09 08:35:25;;;;;;;3.47;1.60;;;24.10;58.60;;;;;;4989181;28;20043;-72
2022/08/09 08:37:51;;;;;;;4.93;1.47;;;24.20;58.20;;;;;;4991156;28;20699;-73
2022/08/09 08:40:16;;;;;;;3.10;1.40;;;24.20;57.30;;;;;;4991106;28;20057;-72
2022/08/09 08:42:42;;;;;;;3.47;1.58;;;24.30;57.20;;;;;;4989560;28;20397;-72
2022/08/09 08:45:09;;;;;;;4.28;1.50;;;24.40;56.80;;;;;;4990942;28;20492;-73
2022/08/09 08:47:35;;;;;;;3.10;1.35;;;24.50;56.00;;;;;;4991076;28;20490;-72
2022/08/09 08:50:01;;;;;;;3.00;1.80;;;24.50;55.90;;;;;;4989978;28;20037;-72
2022/08/09 08:52:28;;;;;;;1.57;1.47;;;24.50;55.70;;;;;;5007641;28;20027;-72
2022/08/09 08:54:57;;;;;;;3.22;1.80;;;24.60;55.50;;;;;;4992945;28;20269;-72
2022/08/09 08:57:23;;;;;;;5.30;1.67;;;24.60;55.70;;;;;;4994210;28;20034;-72
2022/08/09 08:59:49;;;;;;;1.70;0.93;;;24.70;55.30;;;;;;4992959;28;20458;-72
2022/08/09 09:02:27;;;;;;;2.20;1.70;;;24.70;55.10;;;;;;4976727;28;20030;-72
2022/08/09 09:04:54;;;;;;;3.25;1.70;;;24.80;54.90;;;;;;4998274;28;20021;-72
2022/08/09 09:07:20;;;;;;;2.50;1.77;;;24.80;54.00;;;;;;5013893;28;20058;-72
2022/08/09 09:09:48;;;;;;;3.58;1.70;;;24.80;54.50;;;;;;5005509;28;20130;-72
2022/08/09 09:12:19;;;;;;;1.98;1.60;;;24.80;55.10;;;;;;5009292;28;20033;-72
2022/08/09 09:14:45;;;;;;;5.65;1.60;;;24.90;53.90;;;;;;4993880;28;20045;-72
2022/08/09 09:17:11;;;;;;;;;;;25.00;52.90;;;;;;5009201;28;20026;-72
2022/08/09 09:19:37;;;;;;;1.92;1.45;;;25.00;52.90;;;;;;4992808;28;19917;-72
2022/08/09 09:22:08;;;;;;;3.50;2.08;;;25.10;52.60;;;;;;4994344;28;20486;-72
2022/08/09 09:24:48;;;;;;;3.20;2.00;;;25.10;52.40;;;;;;4993959;28;20761;-72
2022/08/09 09:27:22;;;;;;;2.58;1.85;;;25.20;52.80;;;;;;4993786;28;20054;-72
2022/08/09 09:29:47;;;;;;;4.60;2.30;;;25.30;52.70;;;;;;4992960;28;20077;-72
2022/08/09 09:32:25;;;;;;;9.77;2.25;;;25.40;52.60;;;;;;4976584;28;20035;-72
2022/08/09 09:35:09;;;;;;;5.20;2.33;;;25.50;52.10;;;;;;4993723;28;20034;-72
2022/08/09 09:37:36;;;;;;;5.15;2.10;;;25.50;51.80;;;;;;4977002;28;20034;-72
2022/08/09 09:40:02;;;;;;;6.22;2.33;;;25.60;51.60;;;;;;4992957;28;20387;-72
2022/08/09 09:42:31;;;;;;;2.58;1.85;;;25.60;51.60;;;;;;4992378;28;20030;-73
2022/08/09 09:44:58;;;;;;;3.58;1.90;;;25.70;52.20;;;;;;4992467;28;20104;-72
2022/08/09 09:47:24;;;;;;;4.75;2.53;;;25.70;51.20;;;;;;4992319;28;20052;-72
2022/08/09 09:49:51;;;;;;;2.80;1.80;;;25.70;51.60;;;;;;4992018;28;20023;-73
2022/08/09 09:52:17;;;;;;;5.68;1.98;;;25.70;51.10;;;;;;4992326;28;20117;-72
2022/08/09 09:54:45;;;;;;;7.03;2.38;;;25.70;52.00;;;;;;4991345;28;20109;-73
2022/08/09 09:57:22;;;;;;;8.45;2.22;;;25.70;51.80;;;;;;4993302;28;20038;-72
2022/08/09 09:59:49;;;;;;;;;;;25.80;51.70;;;;;;4977283;28;20059;-73
2022/08/09 10:02:17;;;;;;;4.57;2.38;;;25.80;51.80;;;;;;4993232;28;19909;-72
2022/08/09 10:04:43;;;;;;;4.75;1.88;;;25.90;50.90;;;;;;4992607;28;20038;-72
2022/08/09 10:07:25;;;;;;;;;;;25.90;50.80;;;;;;4992585;28;20038;-72
2022/08/09 10:09:54;;;;;;;4.05;2.10;;;25.90;52.00;;;;;;4992085;28;19945;-72
2022/08/09 10:12:52;;;;;;;4.93;2.08;;;25.90;52.60;;;;;;4993356;28;20126;-73
2022/08/09 10:15:17;;;;;;;3.97;2.75;;;25.90;51.70;;;;;;4975718;28;20137;-72
2022/08/09 10:17:46;;;;;;;3.70;1.60;;;26.00;51.60;;;;;;4992945;28;20033;-73
2022/08/09 10:20:18;;;;;;;6.40;2.10;;;26.00;50.70;;;;;;4992101;28;20034;-73
2022/08/09 10:22:45;;;;;;;3.90;2.13;;;26.00;50.70;;;;;;4993426;28;20129;-73
2022/08/09 10:25:11;;;;;;;2.88;1.55;;;26.00;51.10;;;;;;4992277;28;20457;-73
2022/08/09 10:27:37;;;;;;;5.68;1.80;;;26.10;52.40;;;;;;4992819;28;20031;-73
2022/08/09 10:30:04;;;;;;;4.35;1.98;;;26.20;51.00;;;;;;4993184;28;20041;-73
2022/08/09 10:32:30;;;;;;;3.38;2.20;;;26.30;50.90;;;;;;4991631;28;20038;-73
2022/08/09 10:34:56;;;;;;;6.15;1.90;;;26.50;50.10;;;;;;4992986;28;20482;-73
2022/08/09 10:37:22;;;;;;;5.07;1.50;;;26.50;50.70;;;;;;4991571;28;20053;-72
2022/08/09 10:39:49;;;;;;;2.10;1.80;;;26.60;51.30;;;;;;4991831;28;20191;-73
2022/08/09 10:42:15;;;;;;;1.85;1.67;;;26.60;49.30;;;;;;4975183;28;20182;-73
2022/08/09 10:44:47;;;;;;;4.53;1.90;;;26.70;49.90;;;;;;4992565;28;20111;-72
2022/08/09 10:47:38;;;;;;;2.13;1.70;;;26.70;50.00;;;;;;4991457;28;20034;-72
2022/08/09 10:50:27;;;;;;;4.55;1.60;;;26.80;49.40;;;;;;4992852;28;20035;-72
2022/08/09 10:53:10;;;;;;;5.03;1.75;;;26.90;50.30;;;;;;4991335;28;20507;-72
2022/08/09 10:55:36;;;;;;;5.03;2.22;;;26.90;49.30;;;;;;4976546;28;20461;-72
2022/08/09 10:58:02;;;;;;;6.20;2.10;;;26.90;50.50;;;;;;4991332;28;20105;-72
2022/08/09 11:00:28;;;;;;;3.67;2.00;;;27.00;49.90;;;;;;4992544;28;20406;-72
2022/08/09 11:02:54;;;;;;;3.60;1.67;;;27.00;49.20;;;;;;4991182;28;20026;-73
2022/08/09 11:05:21;;;;;;;2.60;1.73;;;27.10;49.50;;;;;;4992597;28;20030;-73
2022/08/09 11:07:47;;;;;;;;;;;27.20;49.60;;;;;;4992545;28;20031;-72
2022/08/09 11:10:14;;;;;;;3.85;1.75;;;27.30;48.80;;;;;;4991449;28;19980;-72
2022/08/09 11:12:40;;;;;;;4.30;1.90;;;27.50;47.90;;;;;;4991072;28;20030;-73
2022/08/09 11:15:18;;;;;;;3.72;1.55;;;27.60;47.50;;;;;;4991328;28;20507;-73
2022/08/09 11:17:46;;;;;;;2.40;1.95;;;27.70;48.90;;;;;;4992010;28;20105;-73
2022/08/09 11:20:12;;;;;;;5.03;1.90;;;27.80;48.20;;;;;;4975053;28;20026;-73
2022/08/09 11:22:43;;;;;;;3.85;1.73;;;27.90;48.60;;;;;;4991861;28;20114;-72
2022/08/09 11:25:16;;;;;;;3.95;1.83;;;27.90;47.00;;;;;;4992054;28;20564;-73
2022/08/09 11:27:44;;;;;;;3.05;1.80;;;27.90;48.50;;;;;;4990652;28;20050;-73
2022/08/09 11:30:11;;;;;;;2.58;1.88;;;27.90;48.70;;;;;;4990850;28;20113;-75
2022/08/09 11:32:53;;;;;;;3.80;1.88;;;28.00;47.10;;;;;;4991729;28;20187;-72
2022/08/09 11:35:40;;;;;;;4.00;2.28;;;28.00;46.40;;;;;;4992087;28;20506;-72
2022/08/09 11:38:28;;;;;;;5.78;2.22;;;27.90;48.00;;;;;;4984389;28;20038;-71
2022/08/09 11:40:54;;;;;;;3.92;2.20;;;27.90;47.70;;;;;;4990556;28;20054;-72
2022/08/09 11:43:26;;;;;;;3.20;1.80;;;28.00;50.00;;;;;;4991439;28;20049;-72
2022/08/09 11:46:03;;;;;;;2.90;1.90;;;28.20;50.10;;;;;;4991871;28;20399;-72
2022/08/09 11:48:45;;;;;;;5.50;1.80;;;28.40;47.70;;;;;;4990322;28;20058;-72
2022/08/09 11:51:10;;;;;;;4.15;1.90;;;28.50;46.60;;;;;;4991802;28;20076;-72
2022/08/09 11:53:37;;;;;;;3.03;1.75;;;28.70;47.60;;;;;;4990050;28;20026;-72
2022/08/09 11:56:15;;;;;;;4.07;1.77;;;28.70;45.60;;;;;;4992168;28;20061;-72
2022/08/09 11:58:50;;;;;;;3.05;2.15;;;28.80;46.30;;;;;;4996493;28;20491;-72
2022/08/09 12:01:17;;;;;;;4.57;1.80;;;29.00;45.30;;;;;;4991634;28;20117;-72
2022/08/09 12:03:44;;;;;;;3.40;2.00;;;29.10;47.50;;;;;;4994123;28;20544;-72
2022/08/09 12:06:21;;;;;;;2.85;2.25;;;29.40;46.00;;;;;;4990365;28;20096;-72
2022/08/09 12:08:52;;;;;;;3.22;1.50;;;29.60;47.90;;;;;;4991729;28;20026;-72
2022/08/09 12:11:23;;;;;;;4.07;2.22;;;29.80;49.20;;;;;;4990488;28;20121;-72
2022/08/09 12:13:55;;;;;;;3.42;2.00;;;29.80;43.70;;;;;;4991244;28;20451;-72
2022/08/09 12:16:24;;;;;;;2.83;2.20;;;29.90;44.00;;;;;;4994275;28;20042;-72
2022/08/09 12:18:51;;;;;;;2.28;2.05;;;30.00;46.80;;;;;;4994937;28;20436;-71
2022/08/09 12:21:33;;;;;;;3.22;1.92;;;30.30;46.60;;;;;;4991562;28;20451;-71
2022/08/09 12:24:01;;;;;;;4.18;2.03;;;30.60;44.90;;;;;;4991034;28;20080;-71
2022/08/09 12:26:50;;;;;;;5.25;1.67;;;30.90;44.70;;;;;;4991407;28;20030;-68
2022/08/09 12:29:17;;;;;;;1.95;1.77;;;31.10;41.90;;;;;;5003489;28;20023;-68
2022/08/09 12:31:44;;;;;;;7.22;2.97;;;31.10;42.90;;;;;;4995743;28;20022;-69
2022/08/09 12:34:10;;;;;;;4.65;2.38;;;31.10;41.70;;;;;;4994826;28;20084;-69
2022/08/09 12:36:52;;;;;;;7.85;2.10;;;31.30;43.40;;;;;;4995383;28;20030;-70
2022/08/09 12:39:18;;;;;;;3.08;1.73;;;31.50;42.10;;;;;;4994089;28;20050;-69
2022/08/09 12:41:44;;;;;;;3.13;1.52;;;31.70;42.50;;;;;;4995054;28;20037;-70
2022/08/09 12:44:09;;;;;;;3.45;2.30;;;31.70;41.60;;;;;;4994937;28;20038;-69
2022/08/09 12:46:35;;;;;;;3.15;1.70;;;31.70;41.10;;;;;;4993860;28;20042;-69
2022/08/09 12:49:01;;;;;;;3.22;1.90;;;31.80;41.90;;;;;;4994829;28;20089;-69
2022/08/09 12:51:27;;;;;;;3.80;1.55;;;31.80;42.90;;;;;;4995146;28;20026;-70
2022/08/09 12:53:58;;;;;;;5.45;1.80;;;32.00;44.90;;;;;;4994799;28;20116;-70